Airfield :
LOGIN :

Register | Disclaimer

   EN    FR    IT 

 










Legend :    VFR   Marginal VFR   IFR   Intensive IFR   Very Intensive IFR
Visi :
Ceiling :
>= 8 km
>= 3000ft
5 to 8 km
1000 to 3000 ft
1500m to 5 km
500 to 1000 ft
800 to 1500m
200 to 500 ft
< 800m
< 200 ft
Symbols :   Thunderstorms  Fog  Heavy snow  Heavy precipitations  Wind > 20 kt
SIGMETs :     Misc.  Thunderstorms  Icing  Turbulence  Mountain Waves  Volcanic Ashes







- Airport Elevation : 163 ft
- IATA code : DGX


EGDX - St Athan

CURRENT METAR :
  • 220950Z 28010KT 9999 SHRA BKN025 05/01 Q1003 BLU

EXPIRED METARs :
  • 220850Z 29010KT 9999 FEW030 04/00 Q1003 BLU
  • 220750Z 29012KT 9999 FEW025 04/01 Q1004 BLU
  • 220650Z AUTO 29012KT 9999 FEW250/// 04/01 Q1004

TAF TAF EGDX
Valid from the 22 at 09:00 until the 22 at 18:00 UTC


220735Z 2209/2218 29013KT 9999 SCT025
TEMPO 2209/2215 6000 -SHRASN BKN015
PROB30
TEMPO 2209/2214 29015G25KT 3000 SHRASN TSGS SCT008 BKN020CB
PROB30
TEMPO 2215/2218 5000 -SHRASN BKN015
No reported NOTAMs for that airfield.



MET'MAP, your aeronautical weather chart ! - Copyright ORBIFLY December 2007 - Disclaimer

ORBIFLY MET'MAP TEAM :

Programming & Development : Alexandra Zaïnal
Concept & Development : Baudouin d'Aumeries
Co-Development & Prog : Marc-Olivier Méhu
Technical & hardware support : Manuel Goepfert

Contact : metmap@orbifly.com




SOURCES & CREDITS :

   NOAA